NDF2MT EDDF-EDDS
Flight info
| Callsign | NDF2MT |
|---|---|
| Flight time | 0h 21m |
| Altitude | 17000 |
| Route | ANEKI2L/18 ANEKI Y163 NEKLO Y171 INKAM N850 KRH T128 BADSO BADSO2A |
| Aircraft | A319/M-SDE3FGHIRWY/LB1 |
Departure
| Time | 2026-05-04 16:04 |
|---|---|
| Airport | Frankfurt Main Airport (EDDF) |
Arrival
| Time | 2026-05-04 16:25 |
|---|---|
| Airport | Stuttgart Airport (EDDS) |
| Time | Latitude | Longitude | Altitude | Speed | Heading |
|---|---|---|---|---|---|
| 2026-05-04 15:29 | 50.04430 | 8.56329 | 362 ft | 0 kts | 167° |
| 2026-05-04 15:42 | 50.04416 | 8.56276 | 359 ft | 0 kts | 162° |
| 2026-05-04 15:47 | 50.04417 | 8.56276 | 359 ft | 1 kts | 162° |
| 2026-05-04 15:47 | 50.04440 | 8.56264 | 363 ft | 4 kts | 162° |
| 2026-05-04 15:47 | 50.04460 | 8.56254 | 360 ft | 4 kts | 169° |
| 2026-05-04 15:48 | 50.04483 | 8.56256 | 362 ft | 4 kts | 227° |
| 2026-05-04 15:48 | 50.04494 | 8.56288 | 363 ft | 4 kts | 250° |
| 2026-05-04 15:48 | 50.04512 | 8.56367 | 363 ft | 3 kts | 250° |
| 2026-05-04 15:49 | 50.04514 | 8.56371 | 363 ft | 1 kts | 250° |
| 2026-05-04 15:52 | 50.04513 | 8.56370 | 363 ft | 1 kts | 249° |
| 2026-05-04 15:52 | 50.04510 | 8.56357 | 364 ft | 3 kts | 249° |
| 2026-05-04 15:53 | 50.04498 | 8.56308 | 358 ft | 7 kts | 249° |
| 2026-05-04 15:53 | 50.04477 | 8.56218 | 358 ft | 10 kts | 250° |
| 2026-05-04 15:53 | 50.04451 | 8.56114 | 362 ft | 11 kts | 248° |
| 2026-05-04 15:53 | 50.04409 | 8.56028 | 356 ft | 10 kts | 194° |
| 2026-05-04 15:54 | 50.04335 | 8.56060 | 361 ft | 12 kts | 159° |
| 2026-05-04 15:54 | 50.04263 | 8.56032 | 357 ft | 12 kts | 242° |
| 2026-05-04 15:54 | 50.04230 | 8.55902 | 357 ft | 14 kts | 249° |
| 2026-05-04 15:54 | 50.04195 | 8.55754 | 359 ft | 15 kts | 251° |
| 2026-05-04 15:55 | 50.04154 | 8.55593 | 351 ft | 17 kts | 251° |
| 2026-05-04 15:55 | 50.04113 | 8.55426 | 352 ft | 17 kts | 257° |
| 2026-05-04 15:55 | 50.04076 | 8.55256 | 358 ft | 17 kts | 250° |
| 2026-05-04 15:55 | 50.04035 | 8.55087 | 356 ft | 18 kts | 251° |
| 2026-05-04 15:56 | 50.03964 | 8.54795 | 357 ft | 25 kts | 251° |
| 2026-05-04 15:56 | 50.03895 | 8.54524 | 349 ft | 28 kts | 245° |
| 2026-05-04 15:56 | 50.03808 | 8.54252 | 347 ft | 29 kts | 242° |
| 2026-05-04 15:56 | 50.03745 | 8.53995 | 353 ft | 22 kts | 251° |
| 2026-05-04 15:57 | 50.03693 | 8.53778 | 343 ft | 21 kts | 249° |
| 2026-05-04 15:57 | 50.03638 | 8.53561 | 339 ft | 22 kts | 248° |
| 2026-05-04 15:57 | 50.03584 | 8.53335 | 337 ft | 23 kts | 250° |
| 2026-05-04 15:57 | 50.03530 | 8.53104 | 334 ft | 22 kts | 250° |
| 2026-05-04 15:58 | 50.03474 | 8.52876 | 335 ft | 22 kts | 249° |
| 2026-05-04 15:58 | 50.03432 | 8.52725 | 334 ft | 7 kts | 249° |
| 2026-05-04 15:58 | 50.03432 | 8.52724 | 334 ft | 0 kts | 249° |
| 2026-05-04 16:00 | 50.03428 | 8.52710 | 332 ft | 4 kts | 249° |
| 2026-05-04 16:00 | 50.03405 | 8.52615 | 336 ft | 10 kts | 249° |
| 2026-05-04 16:01 | 50.03365 | 8.52594 | 335 ft | 0 kts | 176° |
| 2026-05-04 16:03 | 50.03326 | 8.52596 | 336 ft | 30 kts | 178° |
| 2026-05-04 16:03 | 50.02827 | 8.52601 | 335 ft | 109 kts | 180° |
| 2026-05-04 16:03 | 50.01864 | 8.52615 | 426 ft | 154 kts | 180° |
| 2026-05-04 16:04 | 50.00848 | 8.52679 | 1203 ft | 144 kts | 178° |
| 2026-05-04 16:04 | 49.98774 | 8.52818 | 2369 ft | 160 kts | 178° |
| 2026-05-04 16:04 | 49.97585 | 8.52886 | 2762 ft | 182 kts | 178° |
| 2026-05-04 16:05 | 49.96231 | 8.52964 | 3134 ft | 205 kts | 178° |
| 2026-05-04 16:05 | 49.94732 | 8.53052 | 3558 ft | 225 kts | 178° |
| 2026-05-04 16:05 | 49.91516 | 8.53253 | 5060 ft | 236 kts | 178° |
| 2026-05-04 16:06 | 49.89860 | 8.53362 | 5940 ft | 239 kts | 178° |
| 2026-05-04 16:06 | 49.85339 | 8.53667 | 8197 ft | 247 kts | 178° |
| 2026-05-04 16:07 | 49.83046 | 8.53823 | 9297 ft | 251 kts | 178° |
| 2026-05-04 16:07 | 49.77698 | 8.54099 | 11679 ft | 262 kts | 185° |
| 2026-05-04 16:08 | 49.75827 | 8.53847 | 12150 ft | 281 kts | 185° |
| 2026-05-04 16:08 | 49.69270 | 8.52960 | 13023 ft | 351 kts | 185° |
| 2026-05-04 16:09 | 49.64261 | 8.52911 | 14270 ft | 367 kts | 174° |
| 2026-05-04 16:09 | 49.59119 | 8.53794 | 15706 ft | 375 kts | 174° |
| 2026-05-04 16:10 | 49.53900 | 8.54699 | 16851 ft | 382 kts | 174° |
| 2026-05-04 16:11 | 49.45752 | 8.56112 | 15961 ft | 394 kts | 174° |
| 2026-05-04 16:11 | 49.43027 | 8.56584 | 15585 ft | 392 kts | 174° |
| 2026-05-04 16:12 | 49.34970 | 8.57980 | 14462 ft | 386 kts | 174° |
| 2026-05-04 16:12 | 49.26874 | 8.59381 | 13279 ft | 406 kts | 174° |
| 2026-05-04 16:13 | 49.21386 | 8.60328 | 12365 ft | 388 kts | 174° |
| 2026-05-04 16:13 | 49.16088 | 8.61242 | 11377 ft | 382 kts | 174° |
| 2026-05-04 16:14 | 49.10829 | 8.62150 | 10373 ft | 377 kts | 174° |
| 2026-05-04 16:14 | 49.05642 | 8.63044 | 9367 ft | 372 kts | 174° |
| 2026-05-04 16:15 | 48.97957 | 8.64367 | 9006 ft | 370 kts | 174° |
| 2026-05-04 16:16 | 48.92900 | 8.65709 | 8484 ft | 367 kts | 164° |
| 2026-05-04 16:16 | 48.85553 | 8.68982 | 7129 ft | 366 kts | 164° |
| 2026-05-04 16:17 | 48.80680 | 8.71160 | 6228 ft | 362 kts | 164° |
| 2026-05-04 16:18 | 48.73563 | 8.74340 | 5049 ft | 330 kts | 164° |
| 2026-05-04 16:18 | 48.71495 | 8.75265 | 5027 ft | 296 kts | 164° |
| 2026-05-04 16:19 | 48.67162 | 8.80543 | 4025 ft | 267 kts | 112° |
| 2026-05-04 16:19 | 48.66151 | 8.85935 | 4041 ft | 269 kts | 104° |
| 2026-05-04 16:20 | 48.64798 | 8.94165 | 4043 ft | 268 kts | 104° |
| 2026-05-04 16:20 | 48.64631 | 8.99427 | 3980 ft | 226 kts | 73° |
| 2026-05-04 16:21 | 48.65832 | 9.05661 | 3304 ft | 188 kts | 73° |
| 2026-05-04 16:22 | 48.66517 | 9.09236 | 2780 ft | 167 kts | 73° |
| 2026-05-04 16:22 | 48.67394 | 9.13831 | 2194 ft | 139 kts | 73° |
| 2026-05-04 16:23 | 48.68179 | 9.17940 | 1648 ft | 134 kts | 73° |
| 2026-05-04 16:24 | 48.69064 | 9.22585 | 1290 ft | 60 kts | 74° |
| 2026-05-04 16:25 | 48.69303 | 9.23142 | 1285 ft | 0 kts | 28° |
| 2026-05-04 16:26 | 48.69406 | 9.23045 | 1285 ft | 15 kts | 269° |
| 2026-05-04 16:26 | 48.69318 | 9.22574 | 1288 ft | 17 kts | 254° |
| 2026-05-04 16:27 | 48.69252 | 9.22221 | 1285 ft | 18 kts | 254° |
| 2026-05-04 16:28 | 48.69152 | 9.21693 | 1285 ft | 21 kts | 254° |
| 2026-05-04 16:28 | 48.69027 | 9.21035 | 1287 ft | 23 kts | 254° |
| 2026-05-04 16:29 | 48.69027 | 9.20269 | 1289 ft | 7 kts | 235° |
| 2026-05-04 16:30 | 48.68962 | 9.20288 | 1286 ft | 0 kts | 164° |